createdAt,value
2018-10-16T00:00:14.131Z,14.05
2018-10-16T00:02:50.390Z,13.72
2018-10-16T00:05:19.277Z,14.13
2018-10-16T00:07:48.041Z,14.93
2018-10-16T00:10:21.881Z,13.50
2018-10-16T00:12:50.709Z,12.53
2018-10-16T00:15:19.761Z,13.45
2018-10-16T00:17:48.550Z,12.73
2018-10-16T00:20:17.330Z,13.58
2018-10-16T00:22:46.202Z,13.50
2018-10-16T00:25:16.884Z,12.82
2018-10-16T00:27:45.612Z,14.50
2018-10-16T00:30:14.456Z,14.98
2018-10-16T00:32:43.391Z,13.80
2018-10-16T00:35:12.101Z,14.25
2018-10-16T00:37:40.857Z,13.75
2018-10-16T00:40:10.568Z,13.38
2018-10-16T00:42:39.448Z,13.60
2018-10-16T00:45:10.434Z,13.50
2018-10-16T00:47:39.357Z,12.60
2018-10-16T00:50:08.445Z,13.93
2018-10-16T00:52:37.578Z,13.00
2018-10-16T00:55:07.457Z,12.47
2018-10-16T00:57:36.609Z,13.22
2018-10-16T01:00:05.623Z,11.12
2018-10-16T01:02:34.684Z,12.85
2018-10-16T01:05:03.518Z,12.30
2018-10-16T01:07:32.250Z,12.55
2018-10-16T01:10:01.119Z,13.48
2018-10-16T01:12:29.919Z,12.00
2018-10-16T01:15:05.447Z,14.68
2018-10-16T01:17:42.121Z,12.13
2018-10-16T01:20:16.520Z,13.22
2018-10-16T01:22:50.736Z,13.38
2018-10-16T01:25:24.904Z,11.57
2018-10-16T01:28:00.167Z,11.43
2018-10-16T01:30:34.697Z,11.30
2018-10-16T01:33:08.141Z,12.15
2018-10-16T01:35:42.406Z,11.75
2018-10-16T01:38:17.826Z,12.28
2018-10-16T01:40:52.111Z,11.50
2018-10-16T01:43:28.366Z,12.28
2018-10-16T01:46:01.809Z,12.13
2018-10-16T01:48:34.936Z,11.40
2018-10-16T01:51:09.834Z,12.55
2018-10-16T01:53:43.132Z,13.53
2018-10-16T01:56:17.417Z,11.93
2018-10-16T01:58:55.822Z,10.85
2018-10-16T02:01:36.981Z,11.25
2018-10-16T02:04:17.386Z,11.53
2018-10-16T02:06:50.885Z,12.68
2018-10-16T02:09:24.727Z,10.90
2018-10-16T02:11:57.111Z,13.20
2018-10-16T02:14:30.094Z,12.70
2018-10-16T02:17:03.051Z,11.40
2018-10-16T02:19:36.067Z,12.13
2018-10-16T02:22:05.110Z,10.70
2018-10-16T02:24:34.000Z,12.98
2018-10-16T02:27:02.765Z,12.43
2018-10-16T02:29:31.582Z,12.53
2018-10-16T02:32:00.362Z,11.95
2018-10-16T02:34:29.218Z,12.93
2018-10-16T02:36:58.013Z,14.03
2018-10-16T02:39:26.833Z,13.30
2018-10-16T02:41:55.537Z,12.00
2018-10-16T02:44:24.324Z,12.58
2018-10-16T02:46:53.108Z,13.45
2018-10-16T02:49:21.934Z,13.22
2018-10-16T02:51:50.722Z,13.18
2018-10-16T02:54:19.515Z,13.32
2018-10-16T02:56:48.365Z,12.35
2018-10-16T02:59:17.328Z,12.33
2018-10-16T03:01:46.213Z,12.20
2018-10-16T03:04:15.063Z,14.28
2018-10-16T03:06:43.948Z,13.68
2018-10-16T03:09:12.736Z,12.85
2018-10-16T03:11:41.449Z,14.45
2018-10-16T03:14:10.316Z,13.30
2018-10-16T03:16:39.164Z,12.93
2018-10-16T03:19:08.095Z,13.83
2018-10-16T03:21:36.843Z,14.20
2018-10-16T03:24:06.490Z,14.50
2018-10-16T03:26:35.226Z,13.62
2018-10-16T03:29:04.037Z,11.95
2018-10-16T03:31:32.920Z,13.68
2018-10-16T03:34:01.746Z,12.65
2018-10-16T03:36:30.579Z,12.55
2018-10-16T03:38:59.489Z,12.98
2018-10-16T03:41:28.263Z,13.15
2018-10-16T03:44:00.544Z,12.85
2018-10-16T03:46:29.976Z,12.88
2018-10-16T03:48:58.886Z,13.03
2018-10-16T03:51:27.743Z,13.18
2018-10-16T03:53:57.140Z,13.72
2018-10-16T03:56:26.650Z,14.30
2018-10-16T03:58:55.565Z,14.00
2018-10-16T04:01:25.770Z,14.93
2018-10-16T04:03:54.570Z,13.88
2018-10-16T04:06:23.773Z,14.75
2018-10-16T04:08:53.203Z,14.05
2018-10-16T04:11:22.062Z,13.98
2018-10-16T04:13:51.573Z,14.00
2018-10-16T04:16:20.568Z,12.90
2018-10-16T04:18:49.544Z,14.03
2018-10-16T04:21:18.305Z,14.60
2018-10-16T04:23:47.186Z,14.10
2018-10-16T04:26:16.113Z,13.53
2018-10-16T04:28:44.969Z,14.13
2018-10-16T04:31:13.840Z,12.43
2018-10-16T04:33:42.754Z,12.80
2018-10-16T04:36:11.561Z,13.83
2018-10-16T04:38:40.398Z,13.72
2018-10-16T04:41:09.403Z,12.90
2018-10-16T04:43:39.505Z,13.45
2018-10-16T04:46:08.293Z,13.48
2018-10-16T04:48:37.119Z,13.55
2018-10-16T04:51:06.159Z,13.35
2018-10-16T04:53:35.023Z,13.83
2018-10-16T04:56:03.828Z,13.13
2018-10-16T04:58:32.653Z,12.40
2018-10-16T05:01:01.629Z,14.03
2018-10-16T05:03:30.555Z,13.45
2018-10-16T05:05:59.552Z,13.95
2018-10-16T05:08:28.374Z,14.60
2018-10-16T05:10:57.193Z,13.40
2018-10-16T05:13:26.308Z,14.38
2018-10-16T05:15:55.058Z,12.23
2018-10-16T05:18:23.986Z,13.40
2018-10-16T05:20:52.766Z,13.83
2018-10-16T05:23:21.622Z,14.03
2018-10-16T05:25:50.485Z,14.18
2018-10-16T05:28:19.292Z,14.90
2018-10-16T05:30:48.022Z,14.43
2018-10-16T05:33:16.886Z,16.00
2018-10-16T05:35:46.267Z,14.90
2018-10-16T05:38:15.560Z,14.13
2018-10-16T05:40:44.401Z,14.73
2018-10-16T05:43:13.253Z,13.98
2018-10-16T05:45:44.250Z,15.25
2018-10-16T05:48:13.229Z,15.08
2018-10-16T05:50:42.302Z,14.95
2018-10-16T05:53:11.158Z,14.93
2018-10-16T05:55:40.129Z,15.93
2018-10-16T05:58:09.115Z,15.83
2018-10-16T06:00:46.882Z,15.28
2018-10-16T06:03:15.761Z,15.45
2018-10-16T06:05:45.109Z,15.50
2018-10-16T06:08:14.032Z,17.52
2018-10-16T06:10:43.044Z,15.50
2018-10-16T06:13:11.866Z,14.55
2018-10-16T06:15:40.900Z,14.78
2018-10-16T06:18:09.789Z,15.10
2018-10-16T06:20:38.745Z,14.60
2018-10-16T06:23:07.565Z,16.00
2018-10-16T06:25:36.562Z,16.90
2018-10-16T06:28:15.698Z,16.25
2018-10-16T06:30:44.590Z,17.85
2018-10-16T06:33:13.992Z,17.02
2018-10-16T06:35:42.800Z,16.93
2018-10-16T06:38:11.795Z,15.50
2018-10-16T06:40:40.865Z,16.50
2018-10-16T06:43:09.761Z,19.52
2018-10-16T06:45:38.749Z,18.45
2018-10-16T06:48:08.702Z,16.52
2018-10-16T06:50:37.834Z,18.17
2018-10-16T06:53:06.971Z,19.27
2018-10-16T06:55:36.496Z,17.30
2018-10-16T06:58:06.097Z,19.17
2018-10-16T07:00:35.246Z,16.77
2018-10-16T07:03:04.320Z,16.82
2018-10-16T07:05:33.358Z,18.10
2018-10-16T07:08:02.917Z,17.55
2018-10-16T07:10:32.299Z,17.82
2018-10-16T07:13:01.423Z,16.57
2018-10-16T07:15:30.442Z,18.37
2018-10-16T07:17:59.582Z,19.67
2018-10-16T07:20:29.374Z,17.80
2018-10-16T07:22:58.367Z,18.85
2018-10-16T07:25:27.764Z,18.57
2018-10-16T07:27:57.249Z,18.70
2018-10-16T07:30:26.637Z,18.15
2018-10-16T07:32:55.649Z,19.60
2018-10-16T07:35:24.791Z,18.50
2018-10-16T07:37:54.934Z,18.40
2018-10-16T07:40:24.234Z,23.52
2018-10-16T07:42:55.249Z,28.12
2018-10-16T07:45:24.005Z,28.07
2018-10-16T07:47:52.929Z,27.95
2018-10-16T07:50:22.118Z,26.23
2018-10-16T07:52:50.917Z,25.80
2018-10-16T07:55:20.696Z,26.37
2018-10-16T07:57:50.691Z,24.87
2018-10-16T08:00:20.550Z,26.65
2018-10-16T08:02:49.683Z,22.45
2018-10-16T08:05:18.625Z,21.80
2018-10-16T08:07:47.761Z,23.42
2018-10-16T08:10:17.010Z,25.70
2018-10-16T08:12:51.914Z,22.40
2018-10-16T08:15:20.894Z,22.35
2018-10-16T08:17:50.403Z,21.33
2018-10-16T08:20:19.277Z,20.25
2018-10-16T08:22:48.437Z,20.80
2018-10-16T08:25:17.405Z,20.95
2018-10-16T08:27:46.528Z,18.62
2018-10-16T08:30:15.631Z,20.12
2018-10-16T08:32:44.493Z,20.23
2018-10-16T08:35:13.461Z,20.10
2018-10-16T08:39:50.888Z,16.97
2018-10-16T08:42:43.495Z,19.00
2018-10-16T08:45:23.631Z,19.70
2018-10-16T08:48:04.034Z,19.53
2018-10-16T08:50:45.517Z,18.30
2018-10-16T08:53:22.027Z,18.07
2018-10-16T08:55:51.006Z,21.23
2018-10-16T08:58:20.038Z,20.67
2018-10-16T09:00:49.049Z,19.00
2018-10-16T09:03:18.368Z,17.63
2018-10-16T09:05:47.296Z,19.03
2018-10-16T09:08:16.420Z,20.00
2018-10-16T09:10:45.697Z,17.07
2018-10-16T09:13:18.379Z,17.73
2018-10-16T09:15:49.135Z,19.73
2018-10-16T09:18:18.294Z,18.67
2018-10-16T09:20:47.072Z,17.90
2018-10-16T09:23:16.056Z,17.70
2018-10-16T09:25:45.139Z,19.47
2018-10-16T09:28:16.056Z,18.17
2018-10-16T09:30:45.222Z,18.30
2018-10-16T09:33:14.264Z,18.47
2018-10-16T09:35:43.298Z,16.80
2018-10-16T09:38:12.772Z,18.47
2018-10-16T09:40:41.945Z,17.63
2018-10-16T09:43:11.335Z,18.07
2018-10-16T09:45:40.197Z,18.63
2018-10-16T09:48:09.313Z,19.13
2018-10-16T09:50:38.412Z,19.10
2018-10-16T09:53:08.128Z,20.50
2018-10-16T09:55:36.954Z,19.77
2018-10-16T09:58:08.153Z,18.70
2018-10-16T10:00:44.733Z,18.40
2018-10-16T10:03:13.721Z,20.30
2018-10-16T10:05:42.505Z,19.80
2018-10-16T10:08:11.325Z,18.57
2018-10-16T10:10:40.095Z,17.57
2018-10-16T10:13:12.993Z,15.40
2018-10-16T10:15:42.144Z,16.77
2018-10-16T10:18:11.319Z,16.17
2018-10-16T10:20:40.235Z,25.10
2018-10-16T10:23:09.204Z,19.30
2018-10-16T10:25:38.133Z,16.97
2018-10-16T10:28:07.035Z,17.20
2018-10-16T10:30:35.866Z,16.30
2018-10-16T10:33:04.827Z,17.03
2018-10-16T10:35:33.855Z,18.30
2018-10-16T10:38:02.577Z,15.90
2018-10-16T10:40:31.600Z,16.73
2018-10-16T10:43:00.518Z,16.00
2018-10-16T10:45:29.527Z,15.50
2018-10-16T10:47:58.589Z,15.03
2018-10-16T10:50:27.578Z,16.53
2018-10-16T10:52:56.477Z,15.97
2018-10-16T10:55:25.502Z,15.77
2018-10-16T10:57:54.359Z,17.27
2018-10-16T11:00:23.285Z,15.17
2018-10-16T11:02:52.253Z,14.50
2018-10-16T11:05:21.160Z,15.23
2018-10-16T11:07:50.187Z,15.80
2018-10-16T11:10:19.043Z,16.07
2018-10-16T11:12:48.018Z,16.87
2018-10-16T11:15:16.999Z,15.37
2018-10-16T11:17:45.953Z,15.90
2018-10-16T11:20:14.810Z,16.43
2018-10-16T11:22:44.241Z,14.67
2018-10-16T11:25:13.170Z,15.30
2018-10-16T11:27:41.939Z,14.47
2018-10-16T11:30:13.537Z,16.00
2018-10-16T11:32:42.611Z,16.67
2018-10-16T11:35:12.945Z,17.33
2018-10-16T11:37:41.917Z,18.00
2018-10-16T11:40:11.417Z,15.67
2018-10-16T11:42:41.056Z,16.73
2018-10-16T11:45:10.197Z,15.53
2018-10-16T11:47:39.629Z,16.13
2018-10-16T11:50:10.639Z,15.53
2018-10-16T11:52:41.149Z,16.57
2018-10-16T11:55:10.382Z,14.30
2018-10-16T11:57:39.347Z,17.00
2018-10-16T12:00:13.337Z,16.80
2018-10-16T12:02:42.307Z,15.70
2018-10-16T12:05:11.556Z,17.00
2018-10-16T12:07:40.335Z,15.53
2018-10-16T12:10:09.380Z,14.27
2018-10-16T12:12:38.611Z,13.13
2018-10-16T12:15:07.879Z,14.60
2018-10-16T12:18:14.029Z,15.60
2018-10-16T12:20:52.494Z,14.07
2018-10-16T12:26:22.462Z,13.30
2018-10-16T12:29:01.592Z,14.97
2018-10-16T12:31:30.942Z,13.83
2018-10-16T12:33:59.839Z,15.00
2018-10-16T12:36:30.036Z,13.20
2018-10-16T12:38:58.885Z,12.93
2018-10-16T12:41:27.847Z,15.20
2018-10-16T12:43:57.453Z,12.37
2018-10-16T12:46:26.884Z,12.83
2018-10-16T12:48:56.253Z,13.50
2018-10-16T12:51:26.316Z,12.40
2018-10-16T12:53:55.697Z,12.73
2018-10-16T12:56:25.409Z,11.80
2018-10-16T12:58:54.483Z,14.83
2018-10-16T13:01:23.307Z,12.43
2018-10-16T13:03:52.241Z,13.20
2018-10-16T13:06:21.147Z,13.83
2018-10-16T13:08:50.193Z,12.27
2018-10-16T13:11:19.154Z,13.17
2018-10-16T13:13:48.094Z,12.10
2018-10-16T13:16:17.002Z,12.80
2018-10-16T13:18:46.038Z,12.30
2018-10-16T13:21:15.063Z,12.60
2018-10-16T13:23:45.071Z,11.27
2018-10-16T13:26:13.914Z,11.20
2018-10-16T13:28:42.803Z,11.17
2018-10-16T13:31:11.725Z,13.40
2018-10-16T13:33:40.650Z,12.23
2018-10-16T13:36:09.556Z,11.90
2018-10-16T13:38:38.498Z,11.73
2018-10-16T13:41:07.270Z,10.07
2018-10-16T13:43:36.518Z,11.37
2018-10-16T13:46:05.917Z,11.47
2018-10-16T13:48:34.777Z,10.67
2018-10-16T13:51:03.967Z,12.50
2018-10-16T13:53:33.163Z,11.57
2018-10-16T13:56:01.991Z,11.97
2018-10-16T13:58:30.898Z,11.27
2018-10-16T14:01:00.073Z,10.53
2018-10-16T14:03:29.578Z,10.13
2018-10-16T14:05:58.624Z,8.93
2018-10-16T14:08:27.409Z,9.07
2018-10-16T14:10:56.297Z,8.83
2018-10-16T14:13:25.075Z,8.50
2018-10-16T14:15:54.081Z,9.60
2018-10-16T14:18:22.914Z,9.00
2018-10-16T14:20:51.704Z,8.83
2018-10-16T14:23:37.052Z,9.87
2018-10-16T14:26:06.530Z,8.83
2018-10-16T14:28:35.493Z,8.37
2018-10-16T14:31:04.445Z,7.90
2018-10-16T14:33:34.051Z,8.80
2018-10-16T14:36:03.128Z,8.63
2018-10-16T14:38:32.246Z,8.40
2018-10-16T14:41:03.020Z,9.03
2018-10-16T14:43:32.415Z,11.03
2018-10-16T14:46:02.011Z,8.60
2018-10-16T14:48:30.813Z,8.17
2018-10-16T14:50:59.687Z,7.90
2018-10-16T14:53:28.560Z,8.03
2018-10-16T14:55:57.224Z,7.67
2018-10-16T14:58:26.054Z,11.33
2018-10-16T15:00:54.988Z,7.80
2018-10-16T15:03:23.905Z,9.90
2018-10-16T15:05:52.709Z,13.30
2018-10-16T15:08:21.556Z,8.03
2018-10-16T15:10:50.537Z,8.10
2018-10-16T15:13:20.062Z,6.70
2018-10-16T15:15:48.839Z,8.33
2018-10-16T15:18:17.713Z,7.93
2018-10-16T15:20:46.837Z,7.83
2018-10-16T15:23:16.125Z,7.23
2018-10-16T15:25:45.357Z,7.20
2018-10-16T15:28:14.302Z,7.47
2018-10-16T15:30:43.269Z,8.00
2018-10-16T15:33:12.254Z,9.00
2018-10-16T15:35:41.227Z,7.97
2018-10-16T15:38:10.238Z,7.47
2018-10-16T15:40:39.506Z,7.73
2018-10-16T15:43:08.761Z,12.50
2018-10-16T15:45:37.673Z,11.90
2018-10-16T15:48:06.721Z,9.53
2018-10-16T15:50:35.602Z,10.87
2018-10-16T15:53:04.442Z,8.90
2018-10-16T15:55:33.332Z,11.73
2018-10-16T15:58:02.184Z,9.73
2018-10-16T16:00:30.945Z,10.00
2018-10-16T16:02:59.854Z,9.93
2018-10-16T16:05:28.685Z,10.83
2018-10-16T16:07:57.656Z,9.10
2018-10-16T16:10:26.462Z,10.60
2018-10-16T16:12:55.369Z,9.70
2018-10-16T16:15:24.172Z,10.10
2018-10-16T16:17:53.074Z,11.00
2018-10-16T16:20:21.901Z,10.20
2018-10-16T16:22:50.686Z,10.00
2018-10-16T16:25:19.574Z,10.50
2018-10-16T16:27:48.426Z,9.00
2018-10-16T16:30:17.408Z,8.90
2018-10-16T16:32:46.300Z,10.27
2018-10-16T16:35:15.093Z,8.67
2018-10-16T16:37:43.933Z,9.53
2018-10-16T16:40:14.127Z,9.67
2018-10-16T16:42:42.931Z,9.67
2018-10-16T16:45:12.282Z,8.57
2018-10-16T16:47:41.037Z,8.93
2018-10-16T16:50:11.108Z,8.20
2018-10-16T16:52:41.434Z,8.87
2018-10-16T16:55:12.151Z,8.57
2018-10-16T16:57:40.985Z,9.27
2018-10-16T17:00:11.308Z,9.20
2018-10-16T17:02:41.241Z,9.90
2018-10-16T17:05:11.161Z,8.90
2018-10-16T17:07:40.660Z,8.63
2018-10-16T17:10:09.736Z,9.10
2018-10-16T17:12:39.204Z,8.83
2018-10-16T17:15:10.070Z,9.93
2018-10-16T17:17:39.009Z,9.10
2018-10-16T17:20:08.656Z,8.80
2018-10-16T17:22:37.608Z,9.40
2018-10-16T17:25:07.658Z,8.07
2018-10-16T17:27:36.502Z,9.67
2018-10-16T17:30:07.140Z,9.67
2018-10-16T17:32:36.019Z,9.70
2018-10-16T17:35:05.250Z,10.05
2018-10-16T17:37:34.117Z,9.40
2018-10-16T17:40:03.101Z,9.57
2018-10-16T17:42:32.109Z,9.40
2018-10-16T17:45:01.224Z,9.35
2018-10-16T17:47:30.011Z,9.30
2018-10-16T17:49:59.097Z,10.30
2018-10-16T17:52:28.096Z,9.45
2018-10-16T17:54:57.040Z,10.77
2018-10-16T17:57:25.917Z,10.78
2018-10-16T17:59:58.570Z,10.35
2018-10-16T18:02:27.442Z,10.23
2018-10-16T18:04:56.356Z,10.75
2018-10-16T18:07:25.321Z,10.60
2018-10-16T18:09:54.174Z,10.82
2018-10-16T18:12:22.979Z,10.80
2018-10-16T18:14:51.814Z,11.10
2018-10-16T18:17:20.557Z,11.15
2018-10-16T18:19:49.365Z,9.58
2018-10-16T18:22:18.046Z,10.93
2018-10-16T18:24:46.881Z,10.82
2018-10-16T18:27:15.774Z,9.30
2018-10-16T18:29:44.782Z,10.95
2018-10-16T18:32:13.614Z,9.10
2018-10-16T18:34:42.419Z,11.25
2018-10-16T18:37:11.310Z,9.75
2018-10-16T18:39:40.200Z,10.25
2018-10-16T18:42:09.163Z,10.28
2018-10-16T18:44:38.081Z,9.68
2018-10-16T18:47:07.131Z,10.93
2018-10-16T18:49:35.985Z,10.10
2018-10-16T18:52:05.628Z,10.70
2018-10-16T18:54:35.233Z,10.08
2018-10-16T18:57:05.023Z,10.13
2018-10-16T18:59:34.419Z,11.00
2018-10-16T19:02:06.733Z,11.10
2018-10-16T19:04:36.021Z,11.65
2018-10-16T19:07:05.431Z,12.98
2018-10-16T19:09:34.314Z,12.55
2018-10-16T19:12:03.502Z,12.73
2018-10-16T19:14:32.337Z,14.00
2018-10-16T19:17:01.674Z,12.50
2018-10-16T19:19:30.573Z,13.18
2018-10-16T19:21:59.468Z,14.33
2018-10-16T19:24:28.593Z,13.65
2018-10-16T19:26:57.499Z,14.23
2018-10-16T19:29:26.568Z,13.28
2018-10-16T19:31:55.344Z,13.30
2018-10-16T19:34:24.246Z,12.80
2018-10-16T19:36:53.285Z,13.40
2018-10-16T19:39:22.030Z,11.95
2018-10-16T19:41:50.857Z,12.33
2018-10-16T19:44:19.689Z,13.83
2018-10-16T19:46:48.524Z,12.82
2018-10-16T19:49:17.504Z,14.23
2018-10-16T19:51:46.424Z,14.83
2018-10-16T19:54:15.330Z,14.98
2018-10-16T19:56:44.110Z,13.98
2018-10-16T19:59:12.934Z,15.35
2018-10-16T20:01:41.845Z,15.03
2018-10-16T20:04:10.699Z,13.78
2018-10-16T20:06:49.356Z,12.90
2018-10-16T20:09:22.165Z,15.05
2018-10-16T20:11:51.164Z,13.30
2018-10-16T20:14:20.170Z,14.33
2018-10-16T20:16:49.120Z,12.80
2018-10-16T20:19:18.058Z,13.78
2018-10-16T20:21:46.882Z,13.45
2018-10-16T20:24:15.824Z,14.25
2018-10-16T20:26:44.644Z,14.40
2018-10-16T20:29:13.527Z,15.50
2018-10-16T20:31:42.434Z,15.93
2018-10-16T20:34:11.213Z,14.25
2018-10-16T20:36:40.086Z,14.40
2018-10-16T20:39:11.461Z,14.45
2018-10-16T20:41:40.696Z,15.48
2018-10-16T20:44:09.577Z,13.93
2018-10-16T20:46:38.536Z,14.75
2018-10-16T20:49:07.493Z,14.53
2018-10-16T20:51:37.040Z,15.25
2018-10-16T20:54:06.206Z,15.45
2018-10-16T20:56:35.133Z,13.28
2018-10-16T20:59:03.993Z,14.63
2018-10-16T21:01:32.751Z,13.70
2018-10-16T21:04:01.638Z,12.50
2018-10-16T21:06:30.698Z,12.00
2018-10-16T21:08:59.251Z,13.15
2018-10-16T21:11:28.296Z,12.80
2018-10-16T21:13:57.240Z,15.88
2018-10-16T21:16:26.266Z,13.80
2018-10-16T21:18:55.170Z,12.95
2018-10-16T21:21:24.107Z,12.25
2018-10-16T21:23:53.021Z,13.90
2018-10-16T21:26:22.036Z,12.18
2018-10-16T21:28:50.885Z,13.08
2018-10-16T21:31:19.633Z,14.43
2018-10-16T21:33:48.590Z,13.65
2018-10-16T21:36:17.345Z,13.53
2018-10-16T21:38:46.205Z,15.03
2018-10-16T21:41:15.045Z,12.85
2018-10-16T21:43:43.981Z,13.35
2018-10-16T21:46:12.836Z,11.83
2018-10-16T21:48:41.660Z,11.45
2018-10-16T21:51:11.296Z,11.15
2018-10-16T21:53:40.297Z,11.45
2018-10-16T21:56:09.120Z,12.20
2018-10-16T21:58:37.919Z,11.95
2018-10-16T22:01:09.532Z,12.30
2018-10-16T22:03:38.769Z,11.57
2018-10-16T22:06:07.659Z,11.48
2018-10-16T22:08:36.600Z,11.25
2018-10-16T22:11:06.128Z,10.75
2018-10-16T22:13:34.909Z,11.73
2018-10-16T22:16:03.759Z,12.73
2018-10-16T22:18:32.848Z,12.93
2018-10-16T22:21:01.612Z,11.33
2018-10-16T22:23:30.462Z,11.80
2018-10-16T22:25:59.306Z,12.15
2018-10-16T22:28:28.153Z,12.85
2018-10-16T22:30:57.050Z,13.58
2018-10-16T22:33:25.955Z,12.33
2018-10-16T22:35:54.742Z,12.10
2018-10-16T22:38:23.422Z,12.40
2018-10-16T22:40:52.331Z,11.22
2018-10-16T22:43:21.169Z,12.50
2018-10-16T22:45:50.042Z,13.25
2018-10-16T22:48:18.860Z,12.18
2018-10-16T22:50:47.672Z,15.23
2018-10-16T22:53:16.548Z,15.68
2018-10-16T22:55:45.382Z,15.65
2018-10-16T22:58:14.276Z,14.07
2018-10-16T23:00:43.321Z,14.13
2018-10-16T23:03:12.105Z,13.75
2018-10-16T23:05:40.898Z,11.93
2018-10-16T23:08:09.794Z,13.83
2018-10-16T23:10:38.724Z,13.43
2018-10-16T23:13:08.422Z,14.00
2018-10-16T23:15:37.291Z,13.25
2018-10-16T23:18:06.296Z,13.65
2018-10-16T23:20:35.226Z,13.22
2018-10-16T23:23:04.022Z,12.65
2018-10-16T23:25:32.805Z,12.40
2018-10-16T23:28:01.694Z,13.30
2018-10-16T23:30:30.876Z,13.85
2018-10-16T23:32:59.682Z,13.48
2018-10-16T23:35:28.554Z,14.35
2018-10-16T23:37:57.649Z,13.85
2018-10-16T23:40:26.610Z,14.25
2018-10-16T23:42:55.466Z,13.88
2018-10-16T23:45:24.278Z,14.63
2018-10-16T23:47:53.134Z,14.58
2018-10-16T23:50:21.957Z,14.87
2018-10-16T23:52:50.968Z,15.18
2018-10-16T23:55:19.696Z,14.25
2018-10-16T23:57:48.494Z,14.18
